sensor_id;sensor_type;location;lat;lon;timestamp;P1;durP1;ratioP1;P2;durP2;ratioP2
13345;SDS011;6742;48.036;15.780;2023-07-29T00:01:35;2.28;;;2.08;;
13345;SDS011;6742;48.036;15.780;2023-07-29T00:04:05;2.22;;;2.10;;
13345;SDS011;6742;48.036;15.780;2023-07-29T00:06:33;2.50;;;2.30;;
13345;SDS011;6742;48.036;15.780;2023-07-29T00:09:00;2.05;;;1.95;;
13345;SDS011;6742;48.036;15.780;2023-07-29T00:11:26;2.30;;;2.10;;
13345;SDS011;6742;48.036;15.780;2023-07-29T00:13:55;2.67;;;2.20;;
13345;SDS011;6742;48.036;15.780;2023-07-29T00:16:22;2.65;;;2.33;;
13345;SDS011;6742;48.036;15.780;2023-07-29T00:18:48;2.30;;;2.10;;
13345;SDS011;6742;48.036;15.780;2023-07-29T00:21:16;2.40;;;2.20;;
13345;SDS011;6742;48.036;15.780;2023-07-29T00:23:43;2.80;;;1.98;;
13345;SDS011;6742;48.036;15.780;2023-07-29T00:26:10;2.63;;;1.98;;
13345;SDS011;6742;48.036;15.780;2023-07-29T00:28:37;2.03;;;1.92;;
13345;SDS011;6742;48.036;15.780;2023-07-29T00:31:05;2.28;;;2.08;;
13345;SDS011;6742;48.036;15.780;2023-07-29T00:33:32;2.45;;;2.25;;
13345;SDS011;6742;48.036;15.780;2023-07-29T00:35:59;2.58;;;1.90;;
13345;SDS011;6742;48.036;15.780;2023-07-29T00:38:26;2.45;;;1.90;;
13345;SDS011;6742;48.036;15.780;2023-07-29T00:40:53;2.45;;;2.17;;
13345;SDS011;6742;48.036;15.780;2023-07-29T00:43:20;2.72;;;1.95;;
13345;SDS011;6742;48.036;15.780;2023-07-29T00:45:47;2.78;;;2.30;;
13345;SDS011;6742;48.036;15.780;2023-07-29T00:48:17;2.45;;;2.25;;
13345;SDS011;6742;48.036;15.780;2023-07-29T00:50:44;2.22;;;2.03;;
13345;SDS011;6742;48.036;15.780;2023-07-29T00:53:11;2.00;;;1.90;;
13345;SDS011;6742;48.036;15.780;2023-07-29T00:55:38;2.22;;;2.03;;
13345;SDS011;6742;48.036;15.780;2023-07-29T00:58:05;2.30;;;2.10;;
13345;SDS011;6742;48.036;15.780;2023-07-29T01:00:33;3.35;;;2.08;;
13345;SDS011;6742;48.036;15.780;2023-07-29T01:03:00;2.00;;;1.80;;
13345;SDS011;6742;48.036;15.780;2023-07-29T01:05:30;2.40;;;2.10;;
13345;SDS011;6742;48.036;15.780;2023-07-29T01:08:05;2.22;;;2.03;;
13345;SDS011;6742;48.036;15.780;2023-07-29T01:10:39;2.40;;;2.20;;
13345;SDS011;6742;48.036;15.780;2023-07-29T01:13:17;2.42;;;2.08;;
13345;SDS011;6742;48.036;15.780;2023-07-29T01:15:51;2.25;;;2.05;;
13345;SDS011;6742;48.036;15.780;2023-07-29T01:18:22;2.72;;;2.15;;
13345;SDS011;6742;48.036;15.780;2023-07-29T01:20:53;2.17;;;1.98;;
13345;SDS011;6742;48.036;15.780;2023-07-29T01:23:26;2.00;;;1.90;;
13345;SDS011;6742;48.036;15.780;2023-07-29T01:25:55;1.98;;;1.88;;
13345;SDS011;6742;48.036;15.780;2023-07-29T01:28:22;3.80;;;2.17;;
13345;SDS011;6742;48.036;15.780;2023-07-29T01:30:51;2.17;;;1.98;;
13345;SDS011;6742;48.036;15.780;2023-07-29T01:33:25;2.13;;;1.92;;
13345;SDS011;6742;48.036;15.780;2023-07-29T01:35:54;1.90;;;1.80;;
13345;SDS011;6742;48.036;15.780;2023-07-29T01:38:29;2.35;;;2.15;;
13345;SDS011;6742;48.036;15.780;2023-07-29T01:41:00;2.05;;;1.80;;
13345;SDS011;6742;48.036;15.780;2023-07-29T01:43:28;2.28;;;2.08;;
13345;SDS011;6742;48.036;15.780;2023-07-29T01:45:55;2.50;;;1.92;;
13345;SDS011;6742;48.036;15.780;2023-07-29T01:48:22;2.22;;;2.03;;
13345;SDS011;6742;48.036;15.780;2023-07-29T01:50:49;2.30;;;2.10;;
13345;SDS011;6742;48.036;15.780;2023-07-29T01:53:16;2.05;;;1.90;;
13345;SDS011;6742;48.036;15.780;2023-07-29T01:55:44;2.20;;;2.00;;
13345;SDS011;6742;48.036;15.780;2023-07-29T01:58:11;2.90;;;2.10;;
13345;SDS011;6742;48.036;15.780;2023-07-29T02:00:39;2.28;;;2.03;;
13345;SDS011;6742;48.036;15.780;2023-07-29T02:03:06;2.15;;;1.95;;
13345;SDS011;6742;48.036;15.780;2023-07-29T02:05:33;1.98;;;1.83;;
13345;SDS011;6742;48.036;15.780;2023-07-29T02:08:00;2.20;;;2.00;;
13345;SDS011;6742;48.036;15.780;2023-07-29T02:10:27;2.20;;;2.00;;
13345;SDS011;6742;48.036;15.780;2023-07-29T02:12:55;2.35;;;2.10;;
13345;SDS011;6742;48.036;15.780;2023-07-29T02:15:22;2.15;;;1.95;;
13345;SDS011;6742;48.036;15.780;2023-07-29T02:17:49;2.35;;;2.15;;
13345;SDS011;6742;48.036;15.780;2023-07-29T02:20:17;2.63;;;1.85;;
13345;SDS011;6742;48.036;15.780;2023-07-29T02:22:44;2.40;;;2.20;;
13345;SDS011;6742;48.036;15.780;2023-07-29T02:25:10;3.45;;;2.30;;
13345;SDS011;6742;48.036;15.780;2023-07-29T02:27:37;2.38;;;2.17;;
13345;SDS011;6742;48.036;15.780;2023-07-29T02:30:06;2.05;;;1.85;;
13345;SDS011;6742;48.036;15.780;2023-07-29T02:32:34;2.05;;;1.90;;
13345;SDS011;6742;48.036;15.780;2023-07-29T02:35:01;2.05;;;1.95;;
13345;SDS011;6742;48.036;15.780;2023-07-29T02:37:28;2.40;;;2.20;;
13345;SDS011;6742;48.036;15.780;2023-07-29T02:39:55;2.40;;;2.17;;
13345;SDS011;6742;48.036;15.780;2023-07-29T02:42:22;2.63;;;2.20;;
13345;SDS011;6742;48.036;15.780;2023-07-29T02:44:49;2.20;;;2.00;;
13345;SDS011;6742;48.036;15.780;2023-07-29T02:47:18;2.42;;;2.20;;
13345;SDS011;6742;48.036;15.780;2023-07-29T02:49:45;2.20;;;2.00;;
13345;SDS011;6742;48.036;15.780;2023-07-29T02:52:12;3.38;;;2.15;;
13345;SDS011;6742;48.036;15.780;2023-07-29T02:54:39;2.53;;;2.33;;
13345;SDS011;6742;48.036;15.780;2023-07-29T02:57:06;2.60;;;2.17;;
13345;SDS011;6742;48.036;15.780;2023-07-29T02:59:33;2.20;;;2.00;;
13345;SDS011;6742;48.036;15.780;2023-07-29T03:02:00;2.38;;;2.17;;
13345;SDS011;6742;48.036;15.780;2023-07-29T03:04:28;3.08;;;2.38;;
13345;SDS011;6742;48.036;15.780;2023-07-29T03:06:55;2.55;;;1.92;;
13345;SDS011;6742;48.036;15.780;2023-07-29T03:09:23;2.25;;;2.08;;
13345;SDS011;6742;48.036;15.780;2023-07-29T03:11:50;2.38;;;2.17;;
13345;SDS011;6742;48.036;15.780;2023-07-29T03:14:17;2.20;;;2.00;;
13345;SDS011;6742;48.036;15.780;2023-07-29T03:16:44;2.28;;;2.03;;
13345;SDS011;6742;48.036;15.780;2023-07-29T03:19:11;3.25;;;2.30;;
13345;SDS011;6742;48.036;15.780;2023-07-29T03:21:40;2.08;;;1.80;;
13345;SDS011;6742;48.036;15.780;2023-07-29T03:24:07;2.17;;;1.98;;
13345;SDS011;6742;48.036;15.780;2023-07-29T03:26:33;2.30;;;2.10;;
13345;SDS011;6742;48.036;15.780;2023-07-29T03:29:00;2.38;;;2.10;;
13345;SDS011;6742;48.036;15.780;2023-07-29T03:31:27;2.50;;;2.30;;
13345;SDS011;6742;48.036;15.780;2023-07-29T03:33:54;2.25;;;2.08;;
13345;SDS011;6742;48.036;15.780;2023-07-29T03:36:21;2.72;;;2.17;;
13345;SDS011;6742;48.036;15.780;2023-07-29T03:38:52;1.80;;;1.70;;
13345;SDS011;6742;48.036;15.780;2023-07-29T03:41:18;2.55;;;2.08;;
13345;SDS011;6742;48.036;15.780;2023-07-29T03:43:45;2.40;;;2.20;;
13345;SDS011;6742;48.036;15.780;2023-07-29T03:46:12;2.28;;;2.08;;
13345;SDS011;6742;48.036;15.780;2023-07-29T03:48:43;2.38;;;2.17;;
13345;SDS011;6742;48.036;15.780;2023-07-29T03:51:09;2.60;;;2.40;;
13345;SDS011;6742;48.036;15.780;2023-07-29T03:53:36;2.22;;;2.03;;
13345;SDS011;6742;48.036;15.780;2023-07-29T03:56:05;2.50;;;2.30;;
13345;SDS011;6742;48.036;15.780;2023-07-29T03:58:32;2.30;;;2.10;;
13345;SDS011;6742;48.036;15.780;2023-07-29T04:00:59;2.33;;;2.13;;
13345;SDS011;6742;48.036;15.780;2023-07-29T04:03:26;3.00;;;2.30;;
13345;SDS011;6742;48.036;15.780;2023-07-29T04:05:53;2.35;;;2.15;;
13345;SDS011;6742;48.036;15.780;2023-07-29T04:08:20;3.63;;;2.20;;
13345;SDS011;6742;48.036;15.780;2023-07-29T04:10:47;2.58;;;2.00;;
13345;SDS011;6742;48.036;15.780;2023-07-29T04:13:16;2.22;;;2.10;;
13345;SDS011;6742;48.036;15.780;2023-07-29T04:15:43;2.20;;;2.00;;
13345;SDS011;6742;48.036;15.780;2023-07-29T04:18:11;2.33;;;1.92;;
13345;SDS011;6742;48.036;15.780;2023-07-29T04:20:37;2.30;;;2.10;;
13345;SDS011;6742;48.036;15.780;2023-07-29T04:23:04;2.22;;;2.03;;
13345;SDS011;6742;48.036;15.780;2023-07-29T04:25:31;2.72;;;2.30;;
13345;SDS011;6742;48.036;15.780;2023-07-29T04:27:58;2.67;;;2.45;;
13345;SDS011;6742;48.036;15.780;2023-07-29T04:30:27;2.40;;;2.20;;
13345;SDS011;6742;48.036;15.780;2023-07-29T04:32:54;2.47;;;2.28;;
13345;SDS011;6742;48.036;15.780;2023-07-29T04:35:21;2.70;;;2.50;;
13345;SDS011;6742;48.036;15.780;2023-07-29T04:37:48;2.28;;;2.08;;
13345;SDS011;6742;48.036;15.780;2023-07-29T04:40:15;2.45;;;2.25;;
13345;SDS011;6742;48.036;15.780;2023-07-29T04:42:42;2.30;;;2.10;;
13345;SDS011;6742;48.036;15.780;2023-07-29T04:45:09;1.90;;;1.80;;
13345;SDS011;6742;48.036;15.780;2023-07-29T04:47:38;2.65;;;2.20;;
13345;SDS011;6742;48.036;15.780;2023-07-29T04:50:05;2.50;;;2.13;;
13345;SDS011;6742;48.036;15.780;2023-07-29T04:52:33;2.30;;;2.10;;
13345;SDS011;6742;48.036;15.780;2023-07-29T04:55:00;2.63;;;2.42;;
13345;SDS011;6742;48.036;15.780;2023-07-29T04:57:27;3.13;;;2.58;;
13345;SDS011;6742;48.036;15.780;2023-07-29T04:59:54;2.83;;;2.60;;
13345;SDS011;6742;48.036;15.780;2023-07-29T05:02:21;3.00;;;2.70;;
13345;SDS011;6742;48.036;15.780;2023-07-29T05:04:49;2.47;;;2.28;;
13345;SDS011;6742;48.036;15.780;2023-07-29T05:07:16;2.88;;;2.40;;
13345;SDS011;6742;48.036;15.780;2023-07-29T05:09:43;2.40;;;2.20;;
13345;SDS011;6742;48.036;15.780;2023-07-29T05:12:10;2.22;;;2.03;;
13345;SDS011;6742;48.036;15.780;2023-07-29T05:14:37;2.60;;;2.40;;
13345;SDS011;6742;48.036;15.780;2023-07-29T05:17:04;2.40;;;2.20;;
13345;SDS011;6742;48.036;15.780;2023-07-29T05:19:31;2.40;;;2.20;;
13345;SDS011;6742;48.036;15.780;2023-07-29T05:22:00;3.70;;;2.20;;
13345;SDS011;6742;48.036;15.780;2023-07-29T05:24:27;2.47;;;2.28;;
13345;SDS011;6742;48.036;15.780;2023-07-29T05:26:53;3.15;;;2.20;;
13345;SDS011;6742;48.036;15.780;2023-07-29T05:29:20;3.60;;;2.20;;
13345;SDS011;6742;48.036;15.780;2023-07-29T05:31:47;2.72;;;2.50;;
13345;SDS011;6742;48.036;15.780;2023-07-29T05:34:14;2.75;;;2.53;;
13345;SDS011;6742;48.036;15.780;2023-07-29T05:36:41;3.05;;;2.60;;
13345;SDS011;6742;48.036;15.780;2023-07-29T05:39:09;2.70;;;2.50;;
13345;SDS011;6742;48.036;15.780;2023-07-29T05:41:37;2.40;;;2.20;;
13345;SDS011;6742;48.036;15.780;2023-07-29T05:44:04;2.20;;;2.00;;
13345;SDS011;6742;48.036;15.780;2023-07-29T05:46:31;2.70;;;2.20;;
13345;SDS011;6742;48.036;15.780;2023-07-29T05:48:58;2.40;;;2.20;;
13345;SDS011;6742;48.036;15.780;2023-07-29T05:51:25;2.45;;;2.25;;
13345;SDS011;6742;48.036;15.780;2023-07-29T05:53:52;2.83;;;1.90;;
13345;SDS011;6742;48.036;15.780;2023-07-29T05:56:20;2.28;;;1.90;;
13345;SDS011;6742;48.036;15.780;2023-07-29T05:58:47;3.35;;;2.30;;
13345;SDS011;6742;48.036;15.780;2023-07-29T06:01:14;1.90;;;1.70;;
13345;SDS011;6742;48.036;15.780;2023-07-29T06:03:41;1.73;;;1.63;;
13345;SDS011;6742;48.036;15.780;2023-07-29T06:06:08;2.17;;;1.98;;
13345;SDS011;6742;48.036;15.780;2023-07-29T06:08:35;1.92;;;1.70;;
13345;SDS011;6742;48.036;15.780;2023-07-29T06:11:02;1.90;;;1.80;;
13345;SDS011;6742;48.036;15.780;2023-07-29T06:13:32;1.70;;;1.60;;
13345;SDS011;6742;48.036;15.780;2023-07-29T06:15:59;1.70;;;1.60;;
13345;SDS011;6742;48.036;15.780;2023-07-29T06:18:26;3.30;;;1.50;;
13345;SDS011;6742;48.036;15.780;2023-07-29T06:20:53;2.00;;;1.30;;
13345;SDS011;6742;48.036;15.780;2023-07-29T06:23:20;1.52;;;1.40;;
13345;SDS011;6742;48.036;15.780;2023-07-29T06:25:47;1.58;;;1.48;;
13345;SDS011;6742;48.036;15.780;2023-07-29T06:28:14;1.40;;;1.30;;
13345;SDS011;6742;48.036;15.780;2023-07-29T06:30:42;1.30;;;1.20;;
13345;SDS011;6742;48.036;15.780;2023-07-29T06:33:09;1.55;;;1.45;;
13345;SDS011;6742;48.036;15.780;2023-07-29T06:35:36;1.60;;;1.50;;
13345;SDS011;6742;48.036;15.780;2023-07-29T06:38:03;1.42;;;1.33;;
13345;SDS011;6742;48.036;15.780;2023-07-29T06:40:30;1.50;;;1.40;;
13345;SDS011;6742;48.036;15.780;2023-07-29T06:42:57;1.67;;;1.40;;
13345;SDS011;6742;48.036;15.780;2023-07-29T06:45:24;1.75;;;1.45;;
13345;SDS011;6742;48.036;15.780;2023-07-29T06:47:52;1.90;;;1.38;;
13345;SDS011;6742;48.036;15.780;2023-07-29T06:50:19;2.40;;;1.40;;
13345;SDS011;6742;48.036;15.780;2023-07-29T06:52:46;1.38;;;1.27;;
13345;SDS011;6742;48.036;15.780;2023-07-29T06:55:13;1.42;;;1.33;;
13345;SDS011;6742;48.036;15.780;2023-07-29T06:57:40;2.75;;;1.40;;
13345;SDS011;6742;48.036;15.780;2023-07-29T07:00:07;1.40;;;1.30;;
13345;SDS011;6742;48.036;15.780;2023-07-29T07:02:35;1.60;;;1.50;;
13345;SDS011;6742;48.036;15.780;2023-07-29T07:05:03;1.40;;;1.30;;
13345;SDS011;6742;48.036;15.780;2023-07-29T07:07:31;1.35;;;1.25;;
13345;SDS011;6742;48.036;15.780;2023-07-29T07:09:58;1.23;;;1.13;;
13345;SDS011;6742;48.036;15.780;2023-07-29T07:12:25;1.52;;;1.30;;
13345;SDS011;6742;48.036;15.780;2023-07-29T07:14:52;1.60;;;1.50;;
13345;SDS011;6742;48.036;15.780;2023-07-29T07:17:19;1.60;;;1.50;;
13345;SDS011;6742;48.036;15.780;2023-07-29T07:19:45;2.55;;;1.50;;
13345;SDS011;6742;48.036;15.780;2023-07-29T07:22:14;1.50;;;1.40;;
13345;SDS011;6742;48.036;15.780;2023-07-29T07:24:41;1.35;;;1.25;;
13345;SDS011;6742;48.036;15.780;2023-07-29T07:27:08;1.30;;;1.20;;
13345;SDS011;6742;48.036;15.780;2023-07-29T07:29:35;1.40;;;1.30;;
13345;SDS011;6742;48.036;15.780;2023-07-29T07:32:02;1.35;;;1.25;;
13345;SDS011;6742;48.036;15.780;2023-07-29T07:34:29;1.40;;;1.20;;
13345;SDS011;6742;48.036;15.780;2023-07-29T07:36:58;1.88;;;1.30;;
13345;SDS011;6742;48.036;15.780;2023-07-29T07:39:27;2.95;;;1.48;;
13345;SDS011;6742;48.036;15.780;2023-07-29T07:41:53;1.50;;;1.40;;
13345;SDS011;6742;48.036;15.780;2023-07-29T07:44:20;1.60;;;1.50;;
13345;SDS011;6742;48.036;15.780;2023-07-29T07:46:47;1.30;;;1.20;;
13345;SDS011;6742;48.036;15.780;2023-07-29T07:49:14;2.25;;;1.10;;
13345;SDS011;6742;48.036;15.780;2023-07-29T07:51:41;1.30;;;1.20;;
13345;SDS011;6742;48.036;15.780;2023-07-29T07:54:10;1.50;;;1.40;;
13345;SDS011;6742;48.036;15.780;2023-07-29T07:56:38;2.15;;;1.95;;
13345;SDS011;6742;48.036;15.780;2023-07-29T07:59:05;1.45;;;1.35;;
13345;SDS011;6742;48.036;15.780;2023-07-29T08:01:34;1.40;;;1.30;;
13345;SDS011;6742;48.036;15.780;2023-07-29T08:04:01;1.23;;;1.13;;
13345;SDS011;6742;48.036;15.780;2023-07-29T08:06:28;2.75;;;1.30;;
13345;SDS011;6742;48.036;15.780;2023-07-29T08:08:55;1.30;;;1.20;;
13345;SDS011;6742;48.036;15.780;2023-07-29T08:11:22;1.48;;;1.38;;
13345;SDS011;6742;48.036;15.780;2023-07-29T08:13:50;1.70;;;1.60;;
13345;SDS011;6742;48.036;15.780;2023-07-29T08:16:17;1.45;;;1.30;;
13345;SDS011;6742;48.036;15.780;2023-07-29T08:18:44;1.20;;;1.10;;
13345;SDS011;6742;48.036;15.780;2023-07-29T08:21:12;1.30;;;1.17;;
13345;SDS011;6742;48.036;15.780;2023-07-29T08:23:39;2.17;;;1.20;;
13345;SDS011;6742;48.036;15.780;2023-07-29T08:26:06;2.70;;;1.40;;
13345;SDS011;6742;48.036;15.780;2023-07-29T08:28:33;1.63;;;1.20;;
13345;SDS011;6742;48.036;15.780;2023-07-29T08:31:03;1.30;;;1.20;;
13345;SDS011;6742;48.036;15.780;2023-07-29T08:33:30;1.40;;;1.30;;
13345;SDS011;6742;48.036;15.780;2023-07-29T08:35:58;1.30;;;1.20;;
13345;SDS011;6742;48.036;15.780;2023-07-29T08:38:25;1.00;;;1.00;;
13345;SDS011;6742;48.036;15.780;2023-07-29T08:40:53;1.65;;;1.30;;
13345;SDS011;6742;48.036;15.780;2023-07-29T08:43:25;1.50;;;1.20;;
13345;SDS011;6742;48.036;15.780;2023-07-29T08:45:57;1.30;;;1.20;;
13345;SDS011;6742;48.036;15.780;2023-07-29T08:48:28;1.25;;;1.15;;
13345;SDS011;6742;48.036;15.780;2023-07-29T08:50:59;1.40;;;1.30;;
13345;SDS011;6742;48.036;15.780;2023-07-29T08:53:30;1.30;;;1.20;;
13345;SDS011;6742;48.036;15.780;2023-07-29T08:55:58;1.25;;;1.15;;
13345;SDS011;6742;48.036;15.780;2023-07-29T08:58:25;1.20;;;1.10;;
13345;SDS011;6742;48.036;15.780;2023-07-29T09:00:53;1.23;;;1.13;;
13345;SDS011;6742;48.036;15.780;2023-07-29T09:03:20;1.13;;;1.02;;
13345;SDS011;6742;48.036;15.780;2023-07-29T09:05:49;1.30;;;1.20;;
13345;SDS011;6742;48.036;15.780;2023-07-29T09:08:17;1.20;;;1.10;;
13345;SDS011;6742;48.036;15.780;2023-07-29T09:10:46;1.30;;;1.20;;
13345;SDS011;6742;48.036;15.780;2023-07-29T09:13:13;1.10;;;1.08;;
13345;SDS011;6742;48.036;15.780;2023-07-29T09:15:40;1.33;;;1.23;;
13345;SDS011;6742;48.036;15.780;2023-07-29T09:18:10;1.30;;;1.20;;
13345;SDS011;6742;48.036;15.780;2023-07-29T09:20:38;1.40;;;1.30;;
13345;SDS011;6742;48.036;15.780;2023-07-29T09:23:08;1.30;;;1.20;;
13345;SDS011;6742;48.036;15.780;2023-07-29T09:25:36;1.15;;;1.05;;
13345;SDS011;6742;48.036;15.780;2023-07-29T09:28:07;1.25;;;1.15;;
13345;SDS011;6742;48.036;15.780;2023-07-29T09:30:36;1.30;;;1.20;;
13345;SDS011;6742;48.036;15.780;2023-07-29T09:33:03;1.10;;;1.00;;
13345;SDS011;6742;48.036;15.780;2023-07-29T09:35:30;1.23;;;1.13;;
13345;SDS011;6742;48.036;15.780;2023-07-29T09:37:59;1.20;;;1.10;;
13345;SDS011;6742;48.036;15.780;2023-07-29T09:40:27;1.10;;;1.00;;
13345;SDS011;6742;48.036;15.780;2023-07-29T09:43:01;1.00;;;1.00;;
13345;SDS011;6742;48.036;15.780;2023-07-29T09:45:29;1.33;;;1.17;;
13345;SDS011;6742;48.036;15.780;2023-07-29T09:47:56;1.30;;;1.20;;
13345;SDS011;6742;48.036;15.780;2023-07-29T09:50:24;1.40;;;1.30;;
13345;SDS011;6742;48.036;15.780;2023-07-29T09:52:51;1.42;;;1.33;;
13345;SDS011;6742;48.036;15.780;2023-07-29T09:55:19;1.50;;;1.40;;
13345;SDS011;6742;48.036;15.780;2023-07-29T09:57:49;1.27;;;1.17;;
13345;SDS011;6742;48.036;15.780;2023-07-29T10:00:19;1.42;;;1.33;;
13345;SDS011;6742;48.036;15.780;2023-07-29T10:02:47;1.20;;;1.10;;
13345;SDS011;6742;48.036;15.780;2023-07-29T10:05:15;1.05;;;1.05;;
13345;SDS011;6742;48.036;15.780;2023-07-29T10:07:42;1.10;;;1.00;;
13345;SDS011;6742;48.036;15.780;2023-07-29T10:10:09;2.28;;;1.30;;
13345;SDS011;6742;48.036;15.780;2023-07-29T10:12:39;1.33;;;1.20;;
13345;SDS011;6742;48.036;15.780;2023-07-29T10:15:09;1.30;;;1.20;;
13345;SDS011;6742;48.036;15.780;2023-07-29T10:17:37;1.50;;;1.33;;
13345;SDS011;6742;48.036;15.780;2023-07-29T10:20:05;1.38;;;1.10;;
13345;SDS011;6742;48.036;15.780;2023-07-29T10:22:35;1.20;;;1.10;;
13345;SDS011;6742;48.036;15.780;2023-07-29T10:25:04;1.25;;;1.15;;
13345;SDS011;6742;48.036;15.780;2023-07-29T10:27:35;1.20;;;1.10;;
13345;SDS011;6742;48.036;15.780;2023-07-29T10:30:10;1.40;;;1.30;;
13345;SDS011;6742;48.036;15.780;2023-07-29T10:32:38;2.47;;;2.28;;
13345;SDS011;6742;48.036;15.780;2023-07-29T10:35:09;1.40;;;1.30;;
13345;SDS011;6742;48.036;15.780;2023-07-29T10:37:37;1.10;;;1.00;;
13345;SDS011;6742;48.036;15.780;2023-07-29T10:40:05;1.20;;;1.10;;
13345;SDS011;6742;48.036;15.780;2023-07-29T10:42:35;3.05;;;1.15;;
13345;SDS011;6742;48.036;15.780;2023-07-29T10:45:19;1.20;;;1.10;;
13345;SDS011;6742;48.036;15.780;2023-07-29T10:47:47;1.90;;;1.30;;
13345;SDS011;6742;48.036;15.780;2023-07-29T10:50:17;1.40;;;1.30;;
13345;SDS011;6742;48.036;15.780;2023-07-29T10:52:46;2.22;;;1.30;;
13345;SDS011;6742;48.036;15.780;2023-07-29T10:55:24;1.10;;;1.00;;
13345;SDS011;6742;48.036;15.780;2023-07-29T10:57:52;1.70;;;1.15;;
13345;SDS011;6742;48.036;15.780;2023-07-29T11:00:33;1.30;;;1.20;;
13345;SDS011;6742;48.036;15.780;2023-07-29T11:03:00;1.13;;;1.10;;
13345;SDS011;6742;48.036;15.780;2023-07-29T11:05:41;1.40;;;1.30;;
13345;SDS011;6742;48.036;15.780;2023-07-29T11:08:20;1.00;;;1.00;;
13345;SDS011;6742;48.036;15.780;2023-07-29T11:11:03;1.40;;;1.30;;
13345;SDS011;6742;48.036;15.780;2023-07-29T11:13:32;1.25;;;1.15;;
13345;SDS011;6742;48.036;15.780;2023-07-29T11:16:01;1.23;;;1.10;;
13345;SDS011;6742;48.036;15.780;2023-07-29T11:18:30;1.13;;;1.02;;
13345;SDS011;6742;48.036;15.780;2023-07-29T11:20:58;1.27;;;1.17;;
13345;SDS011;6742;48.036;15.780;2023-07-29T11:23:30;2.08;;;1.35;;
13345;SDS011;6742;48.036;15.780;2023-07-29T11:25:58;1.67;;;1.58;;
13345;SDS011;6742;48.036;15.780;2023-07-29T11:28:25;1.33;;;1.10;;
13345;SDS011;6742;48.036;15.780;2023-07-29T11:30:53;1.30;;;1.20;;
13345;SDS011;6742;48.036;15.780;2023-07-29T11:33:23;1.50;;;1.40;;
13345;SDS011;6742;48.036;15.780;2023-07-29T11:35:51;1.40;;;1.30;;
13345;SDS011;6742;48.036;15.780;2023-07-29T11:38:18;1.42;;;1.23;;
13345;SDS011;6742;48.036;15.780;2023-07-29T11:40:58;1.52;;;1.30;;
13345;SDS011;6742;48.036;15.780;2023-07-29T11:43:28;2.42;;;1.33;;
13345;SDS011;6742;48.036;15.780;2023-07-29T11:45:55;1.63;;;1.52;;
13345;SDS011;6742;48.036;15.780;2023-07-29T11:48:31;1.90;;;1.40;;
13345;SDS011;6742;48.036;15.780;2023-07-29T11:50:58;4.07;;;1.40;;
13345;SDS011;6742;48.036;15.780;2023-07-29T11:53:27;1.70;;;1.60;;
13345;SDS011;6742;48.036;15.780;2023-07-29T11:55:55;2.45;;;1.48;;
13345;SDS011;6742;48.036;15.780;2023-07-29T11:58:22;1.95;;;1.80;;
13345;SDS011;6742;48.036;15.780;2023-07-29T12:00:50;1.77;;;1.67;;
13345;SDS011;6742;48.036;15.780;2023-07-29T12:03:18;3.60;;;1.50;;
13345;SDS011;6742;48.036;15.780;2023-07-29T12:05:46;1.70;;;1.60;;
13345;SDS011;6742;48.036;15.780;2023-07-29T12:08:14;1.98;;;1.50;;
13345;SDS011;6742;48.036;15.780;2023-07-29T12:10:41;1.50;;;1.40;;
13345;SDS011;6742;48.036;15.780;2023-07-29T12:13:09;3.50;;;1.67;;
13345;SDS011;6742;48.036;15.780;2023-07-29T12:15:37;2.25;;;1.50;;
13345;SDS011;6742;48.036;15.780;2023-07-29T12:18:05;2.13;;;1.50;;
13345;SDS011;6742;48.036;15.780;2023-07-29T12:20:32;1.77;;;1.42;;
13345;SDS011;6742;48.036;15.780;2023-07-29T12:23:01;2.33;;;1.45;;
13345;SDS011;6742;48.036;15.780;2023-07-29T12:25:31;2.80;;;1.80;;
13345;SDS011;6742;48.036;15.780;2023-07-29T12:28:01;3.40;;;1.80;;
13345;SDS011;6742;48.036;15.780;2023-07-29T12:30:29;1.70;;;1.60;;
13345;SDS011;6742;48.036;15.780;2023-07-29T12:32:56;1.90;;;1.70;;
13345;SDS011;6742;48.036;15.780;2023-07-29T12:35:23;1.67;;;1.58;;
13345;SDS011;6742;48.036;15.780;2023-07-29T12:38:00;2.92;;;1.80;;
13345;SDS011;6742;48.036;15.780;2023-07-29T12:40:28;1.90;;;1.70;;
13345;SDS011;6742;48.036;15.780;2023-07-29T12:42:55;2.20;;;1.70;;
13345;SDS011;6742;48.036;15.780;2023-07-29T12:45:23;3.25;;;1.88;;
13345;SDS011;6742;48.036;15.780;2023-07-29T12:47:52;2.55;;;1.60;;
13345;SDS011;6742;48.036;15.780;2023-07-29T12:50:19;1.92;;;1.75;;
13345;SDS011;6742;48.036;15.780;2023-07-29T12:52:46;2.25;;;1.63;;
13345;SDS011;6742;48.036;15.780;2023-07-29T12:55:14;1.70;;;1.60;;
13345;SDS011;6742;48.036;15.780;2023-07-29T12:57:41;1.70;;;1.60;;
13345;SDS011;6742;48.036;15.780;2023-07-29T13:00:09;2.00;;;1.60;;
13345;SDS011;6742;48.036;15.780;2023-07-29T13:02:37;1.70;;;1.60;;
13345;SDS011;6742;48.036;15.780;2023-07-29T13:05:04;1.60;;;1.50;;
13345;SDS011;6742;48.036;15.780;2023-07-29T13:07:32;1.58;;;1.48;;
13345;SDS011;6742;48.036;15.780;2023-07-29T13:10:00;2.00;;;1.65;;
13345;SDS011;6742;48.036;15.780;2023-07-29T13:12:28;2.28;;;1.50;;
13345;SDS011;6742;48.036;15.780;2023-07-29T13:14:55;1.83;;;1.63;;
13345;SDS011;6742;48.036;15.780;2023-07-29T13:17:22;1.98;;;1.88;;
13345;SDS011;6742;48.036;15.780;2023-07-29T13:19:49;1.60;;;1.50;;
13345;SDS011;6742;48.036;15.780;2023-07-29T13:22:16;1.88;;;1.77;;
13345;SDS011;6742;48.036;15.780;2023-07-29T13:24:43;2.30;;;1.55;;
13345;SDS011;6742;48.036;15.780;2023-07-29T13:27:10;2.05;;;1.77;;
13345;SDS011;6742;48.036;15.780;2023-07-29T13:29:38;1.75;;;1.60;;
13345;SDS011;6742;48.036;15.780;2023-07-29T13:32:07;2.17;;;1.60;;
13345;SDS011;6742;48.036;15.780;2023-07-29T13:34:34;1.90;;;1.70;;
13345;SDS011;6742;48.036;15.780;2023-07-29T13:37:01;2.47;;;2.17;;
13345;SDS011;6742;48.036;15.780;2023-07-29T13:39:28;2.10;;;1.80;;
13345;SDS011;6742;48.036;15.780;2023-07-29T13:41:55;2.00;;;1.60;;
13345;SDS011;6742;48.036;15.780;2023-07-29T13:44:22;1.80;;;1.63;;
13345;SDS011;6742;48.036;15.780;2023-07-29T13:46:50;1.60;;;1.45;;
13345;SDS011;6742;48.036;15.780;2023-07-29T13:49:17;1.70;;;1.58;;
13345;SDS011;6742;48.036;15.780;2023-07-29T13:51:44;1.80;;;1.70;;
13345;SDS011;6742;48.036;15.780;2023-07-29T13:54:11;1.98;;;1.55;;
13345;SDS011;6742;48.036;15.780;2023-07-29T13:56:38;2.50;;;2.30;;
13345;SDS011;6742;48.036;15.780;2023-07-29T13:59:05;1.80;;;1.60;;
13345;SDS011;6742;48.036;15.780;2023-07-29T14:01:32;2.17;;;1.88;;
13345;SDS011;6742;48.036;15.780;2023-07-29T14:04:00;1.73;;;1.63;;
13345;SDS011;6742;48.036;15.780;2023-07-29T14:06:27;1.70;;;1.60;;
13345;SDS011;6742;48.036;15.780;2023-07-29T14:08:55;1.83;;;1.60;;
13345;SDS011;6742;48.036;15.780;2023-07-29T14:11:22;1.80;;;1.70;;
13345;SDS011;6742;48.036;15.780;2023-07-29T14:13:49;2.28;;;1.45;;
13345;SDS011;6742;48.036;15.780;2023-07-29T14:16:16;1.70;;;1.60;;
13345;SDS011;6742;48.036;15.780;2023-07-29T14:18:43;2.08;;;1.90;;
13345;SDS011;6742;48.036;15.780;2023-07-29T14:21:11;2.25;;;1.55;;
13345;SDS011;6742;48.036;15.780;2023-07-29T14:23:38;1.50;;;1.40;;
13345;SDS011;6742;48.036;15.780;2023-07-29T14:26:05;1.63;;;1.52;;
13345;SDS011;6742;48.036;15.780;2023-07-29T14:28:34;2.25;;;2.05;;
13345;SDS011;6742;48.036;15.780;2023-07-29T14:31:01;1.88;;;1.70;;
13345;SDS011;6742;48.036;15.780;2023-07-29T14:33:28;1.83;;;1.70;;
13345;SDS011;6742;48.036;15.780;2023-07-29T14:35:55;2.28;;;1.80;;
13345;SDS011;6742;48.036;15.780;2023-07-29T14:38:23;1.73;;;1.63;;
13345;SDS011;6742;48.036;15.780;2023-07-29T14:40:51;1.70;;;1.60;;
13345;SDS011;6742;48.036;15.780;2023-07-29T14:43:19;2.88;;;1.98;;
13345;SDS011;6742;48.036;15.780;2023-07-29T14:45:47;1.63;;;1.52;;
13345;SDS011;6742;48.036;15.780;2023-07-29T14:48:14;2.15;;;1.70;;
13345;SDS011;6742;48.036;15.780;2023-07-29T14:50:41;1.70;;;1.60;;
13345;SDS011;6742;48.036;15.780;2023-07-29T14:53:08;2.35;;;1.60;;